Time;durP1;ratioP1;P1;durP2;ratioP2;P2;SDS_P1;SDS_P2;PMS_P1;PMS_P2;Temp;Humidity;BMP_temperature;BMP_pressure;BME280_temperature;BME280_humidity;BME280_pressure;Samples;Min_cycle;Max_cycle;Signal;HPM_P1;HPM_P2
2022/06/25 00:00:46;;;;;;;6.70;4.00;;;20.90;99.90;;;;;;5012450;28;20116;-66
2022/06/25 00:03:11;;;;;;;5.57;3.90;;;20.90;99.90;;;;;;5013132;28;20180;-66
2022/06/25 00:05:37;;;;;;;5.85;3.75;;;20.90;99.90;;;;;;5013209;28;20036;-68
2022/06/25 00:08:03;;;;;;;5.65;3.72;;;20.80;99.90;;;;;;5012977;28;20022;-68
2022/06/25 00:10:28;;;;;;;6.82;3.60;;;20.80;99.90;;;;;;5011772;28;20052;-66
2022/06/25 00:12:54;;;;;;;5.95;4.07;;;20.80;99.90;;;;;;5013488;28;20029;-69
2022/06/25 00:15:20;;;;;;;4.60;3.50;;;20.70;99.90;;;;;;5012675;28;20367;-68
2022/06/25 00:17:46;;;;;;;4.10;3.63;;;20.70;99.90;;;;;;5012803;28;20038;-68
2022/06/25 00:20:12;;;;;;;9.75;4.68;;;20.60;99.90;;;;;;5012756;28;20095;-68
2022/06/25 00:22:38;;;;;;;5.93;4.90;;;20.70;99.90;;;;;;5012476;28;20037;-68
2022/06/25 00:25:04;;;;;;;5.63;4.35;;;20.70;99.90;;;;;;5012708;28;20033;-68
2022/06/25 00:27:29;;;;;;;5.63;3.78;;;20.70;99.90;;;;;;5013244;28;20026;-70
2022/06/25 00:29:56;;;;;;;6.82;5.18;;;20.70;99.90;;;;;;5012346;28;20469;-68
2022/06/25 00:32:22;;;;;;;5.20;4.70;;;20.70;99.90;;;;;;5012416;28;20036;-68
2022/06/25 00:34:47;;;;;;;9.50;4.85;;;20.70;99.90;;;;;;5011795;28;20040;-69
2022/06/25 00:37:13;;;;;;;6.68;4.78;;;20.70;99.90;;;;;;5011494;28;20337;-67
2022/06/25 00:39:39;;;;;;;9.02;4.38;;;20.70;99.90;;;;;;5011690;28;20045;-68
2022/06/25 00:42:10;;;;;;;5.65;4.75;;;20.70;99.90;;;;;;5012286;28;20479;-68
2022/06/25 00:44:36;;;;;;;5.90;5.05;;;20.70;99.90;;;;;;5012158;28;20034;-67
2022/06/25 00:47:03;;;;;;;10.38;4.85;;;20.80;99.90;;;;;;5011974;28;20448;-68
2022/06/25 00:49:29;;;;;;;6.35;4.57;;;20.80;99.90;;;;;;5011912;28;20041;-68
2022/06/25 00:52:00;;;;;;;5.32;4.13;;;20.80;99.90;;;;;;5012528;28;20083;-68
2022/06/25 00:54:32;;;;;;;6.70;4.13;;;20.80;99.90;;;;;;5012587;28;20046;-68
2022/06/25 00:57:00;;;;;;;5.53;4.25;;;20.80;99.90;;;;;;5012235;28;20091;-68
2022/06/25 00:59:27;;;;;;;7.80;4.47;;;20.80;99.90;;;;;;5011601;28;20045;-66
2022/06/25 01:01:54;;;;;;;7.17;5.10;;;20.80;99.90;;;;;;5011974;28;20037;-66
2022/06/25 01:04:20;;;;;;;10.43;4.75;;;20.80;99.90;;;;;;5010586;28;20792;-67
2022/06/25 01:06:45;;;;;;;7.22;4.38;;;20.80;99.90;;;;;;5012260;28;20359;-68
2022/06/25 01:09:11;;;;;;;5.88;5.00;;;20.80;99.90;;;;;;5011546;28;20476;-67
2022/06/25 01:11:37;;;;;;;6.22;4.40;;;20.80;99.90;;;;;;5010712;28;20330;-66
2022/06/25 01:14:10;;;;;;;7.55;4.30;;;20.80;99.90;;;;;;5011557;28;20030;-67
2022/06/25 01:16:36;;;;;;;6.78;3.83;;;20.80;99.90;;;;;;5011684;28;20107;-67
2022/06/25 01:19:07;;;;;;;5.35;4.22;;;20.80;99.90;;;;;;5011676;28;20440;-67
2022/06/25 01:21:33;;;;;;;5.63;4.45;;;20.80;99.90;;;;;;5012198;28;20409;-68
2022/06/25 01:24:00;;;;;;;5.55;4.07;;;20.80;99.90;;;;;;5011272;28;20520;-67
2022/06/25 01:26:26;;;;;;;8.25;6.50;;;20.70;99.90;;;;;;5011355;28;20107;-66
2022/06/25 01:28:52;;;;;;;6.05;4.10;;;20.70;99.90;;;;;;5011384;28;20496;-66
2022/06/25 01:31:17;;;;;;;8.00;4.25;;;20.70;99.90;;;;;;5011425;28;20018;-66
2022/06/25 01:33:43;;;;;;;6.30;3.90;;;20.70;99.90;;;;;;5011929;28;20049;-66
2022/06/25 01:36:09;;;;;;;8.07;5.00;;;20.60;99.90;;;;;;5022451;28;20474;-67
2022/06/25 01:38:34;;;;;;;5.72;4.15;;;20.60;99.90;;;;;;5031211;28;20117;-68
2022/06/25 01:41:00;;;;;;;5.15;4.07;;;20.60;99.90;;;;;;5030982;28;20478;-68
2022/06/25 01:43:25;;;;;;;7.55;4.13;;;20.60;99.90;;;;;;5031063;28;20033;-69
2022/06/25 01:45:52;;;;;;;6.70;3.88;;;20.60;99.90;;;;;;5031188;28;20028;-69
2022/06/25 01:48:17;;;;;;;5.20;4.07;;;20.50;99.90;;;;;;5031141;28;20487;-68
2022/06/25 01:50:43;;;;;;;5.35;4.00;;;20.50;99.90;;;;;;5029928;28;20041;-67
2022/06/25 01:53:09;;;;;;;6.32;4.18;;;20.50;99.90;;;;;;5029747;28;20037;-68
2022/06/25 01:55:36;;;;;;;6.32;3.88;;;20.50;99.90;;;;;;5030981;28;20436;-66
2022/06/25 01:58:02;;;;;;;9.60;4.13;;;20.50;99.90;;;;;;5030930;28;20113;-68
2022/06/25 02:00:30;;;;;;;4.38;3.75;;;20.40;99.90;;;;;;5031463;28;20097;-67
2022/06/25 02:02:56;;;;;;;4.55;3.85;;;20.40;99.90;;;;;;5029803;28;20537;-68
2022/06/25 02:08:11;;;;;;;7.00;3.83;;;20.40;99.90;;;;;;5031000;28;20159;-68
2022/06/25 02:10:37;;;;;;;7.18;3.88;;;20.30;99.90;;;;;;5030545;28;20320;-68
2022/06/25 02:13:03;;;;;;;5.50;3.80;;;20.30;99.90;;;;;;5030783;28;20040;-68
2022/06/25 02:15:29;;;;;;;5.57;4.05;;;20.20;99.90;;;;;;5031165;28;20052;-68
2022/06/25 02:17:55;;;;;;;5.97;3.58;;;20.10;99.90;;;;;;5030853;28;20030;-67
2022/06/25 02:20:21;;;;;;;4.63;3.83;;;20.10;99.90;;;;;;5030935;28;20040;-68
2022/06/25 02:22:47;;;;;;;7.00;3.75;;;20.10;99.90;;;;;;5030896;28;20102;-68
2022/06/25 02:25:13;;;;;;;5.00;3.95;;;20.10;99.90;;;;;;5030596;28;20398;-68
2022/06/25 02:27:38;;;;;;;5.35;4.38;;;20.10;99.90;;;;;;5031047;28;20029;-68
2022/06/25 02:30:05;;;;;;;5.72;3.78;;;20.10;99.90;;;;;;5030438;28;20091;-68
2022/06/25 02:32:31;;;;;;;5.35;3.83;;;20.10;99.90;;;;;;5030903;28;20034;-68
2022/06/25 02:34:57;;;;;;;6.15;4.00;;;20.10;99.90;;;;;;5030384;28;20121;-67
2022/06/25 02:37:22;;;;;;;7.15;3.72;;;20.10;99.90;;;;;;5030577;28;20469;-68
2022/06/25 02:39:48;;;;;;;4.53;3.08;;;20.20;99.90;;;;;;5030933;28;20347;-69
2022/06/25 02:42:14;;;;;;;5.15;3.60;;;20.10;99.90;;;;;;5030444;28;20038;-68
2022/06/25 02:44:41;;;;;;;4.43;3.53;;;20.10;99.90;;;;;;5030559;28;20045;-67
2022/06/25 02:47:06;;;;;;;6.68;4.65;;;20.10;99.90;;;;;;5030459;28;20452;-67
2022/06/25 02:49:32;;;;;;;5.63;3.50;;;20.10;99.90;;;;;;5030589;28;20112;-68
2022/06/25 02:51:58;;;;;;;4.93;3.55;;;20.10;99.90;;;;;;5030748;28;20033;-68
2022/06/25 02:54:23;;;;;;;6.47;3.92;;;20.00;99.90;;;;;;5030475;28;20049;-68
2022/06/25 02:59:38;;;;;;;6.00;4.00;;;20.00;99.90;;;;;;5034155;28;20458;-69
2022/06/25 03:02:04;;;;;;;4.95;3.75;;;19.90;99.90;;;;;;5034054;28;20029;-67
2022/06/25 03:04:30;;;;;;;4.00;3.58;;;19.90;99.90;;;;;;5033695;28;20041;-68
2022/06/25 03:06:56;;;;;;;5.30;3.80;;;19.90;99.90;;;;;;5034215;28;20025;-69
2022/06/25 03:09:23;;;;;;;10.63;5.78;;;19.80;99.90;;;;;;5033937;28;20033;-69
2022/06/25 03:11:49;;;;;;;6.60;4.32;;;19.80;99.90;;;;;;5034084;28;20403;-69
2022/06/25 03:14:15;;;;;;;7.28;5.05;;;19.90;99.90;;;;;;5033655;28;20069;-69
2022/06/25 03:16:41;;;;;;;5.18;3.90;;;19.90;99.90;;;;;;5032654;28;20427;-68
2022/06/25 03:19:07;;;;;;;4.95;4.18;;;19.90;99.90;;;;;;5033764;28;20049;-69
2022/06/25 03:21:32;;;;;;;5.22;3.97;;;19.80;99.90;;;;;;5034267;28;20021;-68
2022/06/25 03:23:58;;;;;;;8.55;4.38;;;19.90;99.90;;;;;;5033748;28;20051;-69
2022/06/25 03:26:24;;;;;;;6.68;4.25;;;19.80;99.90;;;;;;5033592;28;20370;-68
2022/06/25 03:28:50;;;;;;;8.48;4.28;;;19.80;99.90;;;;;;5033450;28;20029;-69
2022/06/25 03:31:15;;;;;;;4.30;3.88;;;19.90;99.90;;;;;;5033489;28;20041;-67
2022/06/25 03:33:41;;;;;;;4.65;3.72;;;19.80;99.90;;;;;;5032612;28;20076;-70
2022/06/25 03:36:07;;;;;;;5.38;3.97;;;19.80;99.90;;;;;;5033307;28;20407;-68
2022/06/25 03:38:33;;;;;;;7.85;4.57;;;19.80;99.90;;;;;;5033496;28;20029;-68
2022/06/25 03:43:43;;;;;;;7.30;4.45;;;19.80;99.90;;;;;;5033308;28;20497;-68
2022/06/25 03:46:09;;;;;;;7.10;4.60;;;19.80;99.90;;;;;;5033267;28;20022;-69
2022/06/25 03:48:36;;;;;;;6.05;4.00;;;19.80;99.90;;;;;;5033630;28;20053;-66
2022/06/25 03:51:05;;;;;;;6.50;4.07;;;19.80;99.90;;;;;;5032817;28;20041;-68
2022/06/25 03:53:30;;;;;;;6.28;4.32;;;19.80;99.90;;;;;;5032825;28;20034;-67
2022/06/25 03:55:56;;;;;;;12.32;4.70;;;19.80;99.90;;;;;;5033184;28;20056;-66
2022/06/25 03:58:22;;;;;;;5.40;4.07;;;19.80;99.90;;;;;;5033180;28;20033;-67
2022/06/25 04:00:47;;;;;;;7.85;4.30;;;19.90;99.90;;;;;;5033540;28;20360;-67
2022/06/25 04:03:13;;;;;;;4.40;3.63;;;19.90;99.90;;;;;;5032848;28;20435;-68
2022/06/25 04:05:39;;;;;;;6.28;3.65;;;19.90;99.90;;;;;;5031708;28;20060;-67
2022/06/25 04:08:05;;;;;;;4.25;3.85;;;19.90;99.90;;;;;;5032889;28;20025;-67
2022/06/25 04:10:30;;;;;;;5.00;3.80;;;19.90;99.90;;;;;;5031758;28;20125;-68
2022/06/25 04:12:56;;;;;;;4.85;3.85;;;19.90;99.90;;;;;;5033191;28;20029;-68
2022/06/25 04:15:22;;;;;;;4.57;3.72;;;20.00;99.90;;;;;;5032722;28;20094;-68
2022/06/25 04:17:47;;;;;;;6.13;3.65;;;20.00;99.90;;;;;;5033066;28;20048;-68
2022/06/25 04:20:13;;;;;;;7.68;4.15;;;20.00;99.90;;;;;;5031660;28;20037;-67
2022/06/25 04:22:39;;;;;;;4.05;3.40;;;20.10;99.90;;;;;;5031325;28;20083;-69
2022/06/25 04:25:05;;;;;;;5.95;3.95;;;20.10;99.90;;;;;;5032942;28;20499;-68
2022/06/25 04:30:15;;;;;;;4.53;3.47;;;20.30;99.90;;;;;;5032428;28;20072;-66
2022/06/25 04:32:41;;;;;;;6.47;3.80;;;20.30;99.90;;;;;;5032231;28;20046;-68
2022/06/25 04:35:07;;;;;;;5.80;3.85;;;20.40;99.90;;;;;;5031990;28;20042;-68
2022/06/25 04:37:33;;;;;;;5.47;3.30;;;20.50;99.90;;;;;;5032409;28;20041;-68
2022/06/25 04:39:58;;;;;;;7.13;3.33;;;20.50;99.90;;;;;;5032336;28;20029;-67
2022/06/25 04:42:24;;;;;;;3.40;3.08;;;20.50;99.90;;;;;;5032074;28;20053;-69
2022/06/25 04:44:50;;;;;;;6.63;3.22;;;20.60;99.90;;;;;;5032296;28;20030;-67
2022/06/25 04:47:15;;;;;;;6.85;3.65;;;20.70;99.90;;;;;;5031968;28;20418;-68
2022/06/25 04:49:41;;;;;;;5.28;3.25;;;20.70;99.90;;;;;;5031852;28;20053;-67
2022/06/25 04:52:07;;;;;;;5.40;3.17;;;20.70;99.90;;;;;;5031779;28;20022;-68
2022/06/25 04:54:32;;;;;;;4.57;2.80;;;20.80;99.90;;;;;;5032105;28;20447;-68
2022/06/25 04:56:58;;;;;;;8.35;3.10;;;20.90;99.90;;;;;;5031698;28;20056;-67
2022/06/25 04:59:24;;;;;;;4.93;3.03;;;20.90;99.80;;;;;;5031648;28;20078;-68
2022/06/25 05:01:51;;;;;;;4.68;3.05;;;20.90;99.80;;;;;;5030369;28;20025;-67
2022/06/25 05:04:16;;;;;;;4.15;2.67;;;20.90;99.50;;;;;;5031522;28;20025;-68
2022/06/25 05:06:44;;;;;;;8.00;2.83;;;21.00;99.40;;;;;;5032111;28;20039;-68
2022/06/25 05:09:09;;;;;;;3.97;2.78;;;21.10;99.40;;;;;;5030243;28;20088;-67
2022/06/25 05:11:35;;;;;;;7.72;3.00;;;21.10;99.30;;;;;;5030274;28;20122;-68
2022/06/25 05:14:01;;;;;;;5.50;2.85;;;21.10;99.20;;;;;;5031444;28;20033;-68
2022/06/25 05:16:27;;;;;;;4.93;3.20;;;21.10;99.10;;;;;;5031540;28;20045;-68
2022/06/25 05:18:53;;;;;;;5.90;2.78;;;21.20;98.90;;;;;;5032224;28;20022;-67
2022/06/25 05:21:18;;;;;;;4.10;2.70;;;21.20;98.90;;;;;;5031065;28;20086;-67
2022/06/25 05:23:45;;;;;;;4.57;2.42;;;21.30;98.80;;;;;;5030157;28;20116;-68
2022/06/25 05:26:10;;;;;;;5.78;2.70;;;21.30;98.70;;;;;;5031127;28;20124;-68
2022/06/25 05:28:36;;;;;;;4.85;2.67;;;21.40;98.50;;;;;;5031304;28;20033;-67
2022/06/25 05:31:05;;;;;;;3.65;2.72;;;21.50;98.40;;;;;;5030936;28;20033;-67
2022/06/25 05:33:31;;;;;;;2.97;2.30;;;21.60;98.20;;;;;;5031411;28;20039;-68
2022/06/25 05:35:56;;;;;;;4.32;2.28;;;21.70;98.10;;;;;;5031039;28;20116;-67
2022/06/25 05:38:22;;;;;;;3.72;2.00;;;21.70;97.90;;;;;;5031117;28;20029;-67
2022/06/25 05:40:48;;;;;;;7.20;2.63;;;21.80;97.60;;;;;;5030934;28;20056;-67
2022/06/25 05:43:13;;;;;;;6.47;3.50;;;21.80;97.50;;;;;;5029995;28;20037;-67
2022/06/25 05:45:39;;;;;;;3.45;2.10;;;21.80;97.40;;;;;;5031388;28;20355;-68
2022/06/25 05:48:05;;;;;;;4.53;2.45;;;22.00;97.40;;;;;;5030835;28;20030;-68
2022/06/25 05:50:31;;;;;;;3.63;2.58;;;22.00;96.90;;;;;;5030779;28;20193;-66
2022/06/25 05:52:57;;;;;;;2.13;1.92;;;22.10;96.90;;;;;;5030784;28;20061;-66
2022/06/25 05:55:24;;;;;;;3.40;1.88;;;22.10;96.80;;;;;;5030821;28;20053;-67
2022/06/25 05:57:50;;;;;;;2.33;1.70;;;22.20;96.50;;;;;;5031326;28;20026;-67
2022/06/25 06:00:16;;;;;;;4.07;1.98;;;22.50;96.10;;;;;;5030939;28;20034;-67
2022/06/25 06:02:42;;;;;;;1.52;1.42;;;22.50;95.90;;;;;;5029818;28;20360;-67
2022/06/25 06:05:08;;;;;;;4.45;1.50;;;22.60;95.50;;;;;;5030803;28;20049;-67
2022/06/25 06:07:34;;;;;;;2.95;1.80;;;22.60;95.50;;;;;;5030724;28;20426;-67
2022/06/25 06:10:00;;;;;;;2.53;1.80;;;22.70;95.30;;;;;;5031041;28;20025;-67
2022/06/25 06:12:27;;;;;;;2.42;1.50;;;22.70;95.30;;;;;;5031085;28;20653;-67
2022/06/25 06:14:52;;;;;;;3.40;1.65;;;22.70;95.40;;;;;;5030936;28;20082;-67
2022/06/25 06:17:18;;;;;;;2.38;1.70;;;22.60;95.20;;;;;;5030629;28;20121;-68
2022/06/25 06:19:44;;;;;;;2.72;1.58;;;22.70;95.40;;;;;;5029548;28;20045;-68
2022/06/25 06:22:09;;;;;;;3.47;1.60;;;22.80;94.90;;;;;;5030610;28;20421;-67
2022/06/25 06:24:35;;;;;;;2.63;1.40;;;22.80;95.00;;;;;;5031090;28;20013;-68
2022/06/25 06:27:01;;;;;;;2.33;1.42;;;22.80;94.60;;;;;;5030808;28;20044;-68
2022/06/25 06:29:30;;;;;;;3.20;1.73;;;22.80;94.80;;;;;;5029441;28;20044;-67
2022/06/25 06:31:56;;;;;;;2.22;1.38;;;22.90;94.60;;;;;;5029746;28;20447;-68
2022/06/25 06:34:22;;;;;;;1.60;1.50;;;23.00;94.40;;;;;;5033360;28;20037;-67
2022/06/25 06:36:47;;;;;;;1.40;1.30;;;23.00;94.20;;;;;;5034922;28;20033;-68
2022/06/25 06:39:13;;;;;;;8.02;1.55;;;22.80;94.00;;;;;;5034361;28;20139;-69
2022/06/25 06:41:39;;;;;;;2.72;1.80;;;22.60;94.10;;;;;;5033085;28;20044;-67
2022/06/25 06:44:05;;;;;;;5.03;1.77;;;22.80;94.10;;;;;;5034470;28;20040;-68
2022/06/25 06:46:30;;;;;;;2.75;1.65;;;22.80;94.20;;;;;;5034311;28;20052;-68
2022/06/25 06:48:56;;;;;;;4.78;2.35;;;22.70;94.30;;;;;;5033495;28;20021;-67
2022/06/25 06:51:22;;;;;;;4.93;1.75;;;22.80;94.30;;;;;;5030220;28;20487;-69
2022/06/25 06:53:47;;;;;;;4.40;1.30;;;22.90;94.40;;;;;;5033479;28;20038;-67
2022/06/25 06:56:13;;;;;;;1.33;1.23;;;22.80;94.20;;;;;;5034216;28;20369;-68
2022/06/25 06:58:39;;;;;;;3.92;1.60;;;22.80;94.30;;;;;;5032868;28;20034;-67
2022/06/25 07:01:04;;;;;;;5.57;2.13;;;22.80;94.40;;;;;;5033927;28;20049;-69
2022/06/25 07:03:31;;;;;;;4.20;1.63;;;22.90;94.40;;;;;;5034500;28;20049;-68
2022/06/25 07:05:57;;;;;;;4.68;1.77;;;22.90;94.30;;;;;;5032774;28;20034;-68
2022/06/25 07:08:23;;;;;;;4.03;1.52;;;23.00;94.40;;;;;;5033471;28;20034;-67
2022/06/25 07:10:48;;;;;;;3.70;1.65;;;23.00;94.30;;;;;;5033460;28;20422;-67
2022/06/25 07:13:14;;;;;;;6.97;1.63;;;23.00;94.20;;;;;;5033722;28;20064;-67
2022/06/25 07:15:40;;;;;;;4.85;1.48;;;23.20;94.30;;;;;;5033827;28;20032;-67
2022/06/25 07:18:06;;;;;;;2.03;1.40;;;23.60;94.10;;;;;;5032278;28;20033;-68
2022/06/25 07:20:32;;;;;;;2.45;1.20;;;23.80;93.70;;;;;;5032462;28;20345;-70
2022/06/25 07:22:58;;;;;;;2.08;1.38;;;23.90;93.40;;;;;;5033410;28;20116;-69
2022/06/25 07:25:23;;;;;;;3.17;1.50;;;23.90;93.50;;;;;;5032184;28;20039;-70
2022/06/25 07:27:49;;;;;;;6.25;1.52;;;23.90;93.40;;;;;;5032619;28;20424;-68
2022/06/25 07:30:15;;;;;;;2.05;1.23;;;23.80;92.80;;;;;;5032264;28;20045;-68
2022/06/25 07:32:41;;;;;;;3.25;1.40;;;23.80;92.70;;;;;;5032162;28;20037;-70
2022/06/25 07:35:07;;;;;;;3.75;1.50;;;23.70;92.80;;;;;;5033395;28;20041;-68
2022/06/25 07:37:33;;;;;;;4.53;1.63;;;23.80;92.60;;;;;;5033385;28;20106;-68
2022/06/25 07:40:00;;;;;;;2.97;1.40;;;23.90;92.60;;;;;;5033642;28;20140;-67
2022/06/25 07:42:25;;;;;;;6.40;1.42;;;23.90;92.10;;;;;;5033608;28;20073;-69
2022/06/25 07:44:52;;;;;;;4.53;1.33;;;23.90;92.30;;;;;;5031114;28;20037;-69
2022/06/25 07:47:18;;;;;;;1.63;1.10;;;24.00;91.70;;;;;;5027879;28;20125;-68
2022/06/25 07:52:28;;;;;;;4.22;1.48;;;24.30;91.80;;;;;;5033555;28;20088;-69
2022/06/25 07:54:54;;;;;;;2.10;1.40;;;24.20;91.20;;;;;;5033675;28;20033;-69
2022/06/25 07:57:19;;;;;;;2.00;1.20;;;24.10;91.30;;;;;;5033125;28;20061;-69
2022/06/25 07:59:45;;;;;;;5.03;1.20;;;24.30;91.30;;;;;;5033087;28;20045;-69
2022/06/25 08:02:11;;;;;;;3.85;1.33;;;24.50;90.90;;;;;;5032826;28;20041;-68
2022/06/25 08:04:37;;;;;;;2.83;1.15;;;24.70;90.90;;;;;;5020407;28;20086;-68
2022/06/25 08:07:03;;;;;;;1.30;0.93;;;24.90;90.20;;;;;;5013091;28;20507;-68
2022/06/25 08:09:29;;;;;;;3.60;1.25;;;24.90;89.30;;;;;;5013095;28;20113;-67
2022/06/25 08:11:55;;;;;;;2.28;1.25;;;25.00;89.30;;;;;;5012761;28;20492;-68
2022/06/25 08:14:21;;;;;;;4.95;1.65;;;25.50;88.80;;;;;;5012690;28;20034;-69
2022/06/25 08:16:47;;;;;;;1.85;1.30;;;26.10;86.80;;;;;;5011604;28;20367;-69
2022/06/25 08:19:12;;;;;;;3.55;0.90;;;26.90;85.80;;;;;;5011440;28;20034;-69
2022/06/25 08:21:38;;;;;;;2.17;1.20;;;27.90;83.30;;;;;;5011983;28;20328;-69
2022/06/25 08:24:04;;;;;;;1.55;0.82;;;27.90;80.50;;;;;;5012639;28;20046;-70
2022/06/25 08:26:30;;;;;;;2.92;1.40;;;28.60;80.10;;;;;;5012715;28;20037;-69
2022/06/25 08:28:56;;;;;;;7.25;1.20;;;29.50;79.10;;;;;;5012573;28;20022;-70
2022/06/25 08:31:23;;;;;;;3.22;1.00;;;29.80;75.20;;;;;;5012358;28;20049;-71
2022/06/25 08:33:48;;;;;;;1.85;1.05;;;30.10;72.00;;;;;;5012994;28;20022;-72
2022/06/25 08:36:14;;;;;;;2.85;1.20;;;30.50;71.10;;;;;;5012888;28;20048;-69
2022/06/25 08:38:40;;;;;;;6.93;1.52;;;30.50;68.00;;;;;;5012602;28;20030;-70
2022/06/25 08:41:06;;;;;;;2.15;0.80;;;31.50;66.60;;;;;;5012372;28;20044;-72
2022/06/25 08:43:32;;;;;;;3.80;1.05;;;31.50;62.90;;;;;;5012411;28;20029;-70
2022/06/25 08:45:57;;;;;;;1.70;0.90;;;32.30;62.90;;;;;;5012707;28;20026;-70
2022/06/25 08:48:30;;;;;;;1.02;0.80;;;32.30;62.20;;;;;;5012014;28;20033;-69
2022/06/25 08:50:56;;;;;;;2.30;1.23;;;32.70;62.80;;;;;;5011880;28;20034;-70
2022/06/25 08:53:22;;;;;;;1.70;0.77;;;33.50;61.30;;;;;;5011962;28;20461;-70
2022/06/25 08:55:48;;;;;;;6.53;1.30;;;33.90;57.40;;;;;;5011525;28;20144;-69
2022/06/25 08:58:14;;;;;;;3.00;0.90;;;33.70;57.20;;;;;;5012048;28;20026;-70
2022/06/25 09:00:42;;;;;;;2.90;0.82;;;33.60;57.60;;;;;;5012235;28;20053;-69
2022/06/25 09:03:09;;;;;;;3.90;1.00;;;32.70;56.90;;;;;;5010654;28;20030;-70
2022/06/25 09:05:36;;;;;;;1.20;0.88;;;33.60;56.30;;;;;;5011892;28;20029;-70
2022/06/25 09:08:03;;;;;;;;;;;33.50;56.60;;;;;;5012477;28;20034;-70
2022/06/25 09:10:29;;;;;;;4.25;1.20;;;32.90;55.80;;;;;;5011572;28;20363;-69
2022/06/25 09:13:01;;;;;;;1.30;0.70;;;32.90;56.70;;;;;;5012150;28;20507;-69
2022/06/25 09:15:39;;;;;;;4.53;1.20;;;32.60;57.30;;;;;;5011575;28;20045;-71
2022/06/25 09:18:11;;;;;;;1.65;0.70;;;32.10;57.40;;;;;;5011897;28;20030;-70
2022/06/25 09:20:58;;;;;;;1.67;1.38;;;32.10;57.40;;;;;;5011487;28;20464;-69
2022/06/25 09:23:26;;;;;;;4.10;1.20;;;32.30;57.40;;;;;;5011582;28;20034;-70
2022/06/25 09:26:08;;;;;;;1.17;0.82;;;32.30;58.50;;;;;;5011524;28;20026;-68
2022/06/25 09:28:44;;;;;;;0.73;0.65;;;32.60;57.60;;;;;;5010516;28;20352;-69
2022/06/25 09:31:09;;;;;;;1.98;1.08;;;31.60;57.20;;;;;;5010042;28;20033;-69
2022/06/25 09:33:37;;;;;;;1.40;0.82;;;31.30;58.40;;;;;;5012074;28;20029;-68
2022/06/25 09:36:10;;;;;;;4.15;0.90;;;30.40;58.50;;;;;;5010093;28;20151;-71
2022/06/25 09:38:49;;;;;;;1.00;0.90;;;30.60;58.60;;;;;;5011191;28;20040;-71
2022/06/25 09:41:14;;;;;;;2.58;0.73;;;30.00;58.40;;;;;;5011149;28;20116;-70
2022/06/25 09:43:41;;;;;;;1.58;0.85;;;29.90;59.10;;;;;;5011216;28;20117;-69
2022/06/25 09:46:07;;;;;;;1.80;0.93;;;29.80;59.10;;;;;;5011148;28;20049;-71
2022/06/25 09:48:36;;;;;;;2.70;0.80;;;29.50;60.70;;;;;;5011367;28;20049;-70
2022/06/25 09:51:10;;;;;;;3.25;1.10;;;29.60;61.00;;;;;;5011126;28;20034;-72
2022/06/25 09:53:49;;;;;;;2.28;1.08;;;28.90;61.10;;;;;;5010944;28;20026;-72
2022/06/25 09:56:17;;;;;;;1.58;0.98;;;29.20;62.60;;;;;;5011043;28;20030;-72
2022/06/25 09:58:44;;;;;;;6.45;1.42;;;28.80;61.90;;;;;;5010904;28;20026;-70
2022/06/25 10:01:10;;;;;;;1.58;1.02;;;29.10;62.50;;;;;;5009848;28;20479;-70
2022/06/25 10:03:37;;;;;;;1.10;1.00;;;29.10;62.40;;;;;;5011430;28;20431;-72
2022/06/25 10:06:06;;;;;;;1.88;0.88;;;29.20;62.40;;;;;;5010955;28;20030;-71
2022/06/25 10:08:33;;;;;;;1.65;0.70;;;29.50;62.40;;;;;;5008883;28;20109;-71
2022/06/25 10:10:59;;;;;;;1.40;0.90;;;29.70;61.70;;;;;;5010953;28;20076;-72
2022/06/25 10:13:25;;;;;;;3.60;1.40;;;29.10;61.20;;;;;;5009767;28;20128;-71
2022/06/25 10:15:52;;;;;;;2.30;1.10;;;29.40;61.80;;;;;;5010035;28;20029;-71
2022/06/25 10:18:18;;;;;;;1.97;1.10;;;29.30;61.90;;;;;;5011129;28;20030;-70
2022/06/25 10:20:44;;;;;;;4.20;1.40;;;29.50;62.00;;;;;;5010869;28;20272;-71
2022/06/25 10:23:12;;;;;;;1.67;1.02;;;29.50;62.50;;;;;;5010886;28;20116;-70
2022/06/25 10:25:38;;;;;;;3.47;1.50;;;29.70;62.70;;;;;;5010725;28;20433;-72
2022/06/25 10:28:25;;;;;;;2.50;1.52;;;29.40;61.70;;;;;;5010743;28;20464;-72
2022/06/25 10:30:58;;;;;;;2.45;1.40;;;29.10;62.80;;;;;;5010042;28;20386;-71
2022/06/25 10:33:29;;;;;;;1.95;1.30;;;29.00;63.40;;;;;;5010724;28;20333;-70
2022/06/25 10:35:57;;;;;;;2.72;1.08;;;28.90;63.00;;;;;;5010291;28;20044;-72
2022/06/25 10:38:25;;;;;;;2.10;1.15;;;28.70;63.80;;;;;;5010527;28;20026;-71
2022/06/25 10:40:59;;;;;;;2.50;1.15;;;29.00;63.00;;;;;;5010578;28;20022;-71
2022/06/25 10:43:52;;;;;;;2.15;1.33;;;29.10;63.00;;;;;;5010742;28;20038;-72
2022/06/25 10:46:27;;;;;;;2.60;1.17;;;29.30;62.80;;;;;;5010531;28;20022;-71
2022/06/25 10:49:04;;;;;;;0.75;0.68;;;29.40;62.40;;;;;;5011279;28;20464;-71
2022/06/25 10:51:32;;;;;;;2.92;1.00;;;29.20;62.50;;;;;;5010462;28;20045;-71
2022/06/25 10:53:59;;;;;;;2.28;0.90;;;29.10;63.00;;;;;;5010816;28;20022;-71
2022/06/25 10:56:26;;;;;;;1.60;1.00;;;29.10;62.70;;;;;;5010473;28;20357;-71
2022/06/25 10:58:52;;;;;;;1.65;1.10;;;29.00;63.30;;;;;;5010391;28;20018;-71
2022/06/25 11:01:24;;;;;;;3.70;1.20;;;29.10;63.00;;;;;;5009472;28;20436;-71
2022/06/25 11:03:58;;;;;;;2.40;1.10;;;29.40;62.30;;;;;;5011015;28;20048;-72
2022/06/25 11:06:50;;;;;;;2.50;0.95;;;29.00;62.30;;;;;;5010492;28;20030;-71
2022/06/25 11:09:16;;;;;;;5.05;1.58;;;28.90;63.10;;;;;;5009808;28;20479;-71
2022/06/25 11:11:48;;;;;;;0.70;0.70;;;29.10;63.10;;;;;;5010467;28;20366;-72
2022/06/25 11:14:20;;;;;;;2.88;0.80;;;29.20;62.90;;;;;;5010542;28;20434;-72
2022/06/25 11:16:46;;;;;;;2.97;1.35;;;29.30;61.40;;;;;;5010409;28;20040;-72
2022/06/25 11:19:12;;;;;;;5.50;1.73;;;29.20;61.80;;;;;;5012416;28;20026;-71
2022/06/25 11:21:42;;;;;;;6.72;1.00;;;29.30;61.20;;;;;;5013073;28;20444;-72
2022/06/25 11:24:16;;;;;;;2.25;1.13;;;29.30;61.60;;;;;;5013899;28;20040;-71
2022/06/25 11:29:42;;;;;;;2.78;0.80;;;29.10;61.90;;;;;;5013669;28;20494;-72
2022/06/25 11:32:08;;;;;;;1.27;0.90;;;29.20;61.60;;;;;;5013562;28;20368;-71
2022/06/25 11:34:35;;;;;;;1.00;0.80;;;29.20;61.50;;;;;;5013329;28;20042;-71
2022/06/25 11:37:06;;;;;;;2.58;1.40;;;28.90;61.30;;;;;;5014006;28;20034;-71
2022/06/25 11:39:39;;;;;;;2.58;1.27;;;28.90;62.40;;;;;;5013971;28;20041;-72
2022/06/25 11:42:09;;;;;;;2.67;0.93;;;29.20;62.00;;;;;;5013475;28;20053;-72
2022/06/25 11:44:38;;;;;;;1.55;1.20;;;29.30;61.60;;;;;;5013236;28;20098;-71
2022/06/25 11:47:04;;;;;;;2.10;1.30;;;29.20;61.20;;;;;;5012361;28;20076;-72
2022/06/25 11:49:41;;;;;;;2.08;1.15;;;29.10;61.00;;;;;;5013514;28;20052;-72
2022/06/25 11:52:07;;;;;;;1.25;1.13;;;29.20;61.10;;;;;;5013199;28;20049;-71
2022/06/25 11:54:36;;;;;;;5.22;2.25;;;29.10;61.70;;;;;;5013666;28;20344;-72
2022/06/25 11:57:05;;;;;;;5.15;1.40;;;29.10;61.80;;;;;;5012052;28;20026;-72
2022/06/25 11:59:33;;;;;;;2.40;1.20;;;29.00;61.50;;;;;;5012917;28;20048;-71
2022/06/25 12:01:59;;;;;;;3.88;1.20;;;28.80;61.40;;;;;;5013243;28;20029;-71
2022/06/25 12:04:26;;;;;;;3.28;1.20;;;28.60;62.00;;;;;;5013406;28;20053;-71
2022/06/25 12:06:53;;;;;;;2.10;1.10;;;28.60;62.60;;;;;;5012535;28;20030;-72
2022/06/25 12:09:20;;;;;;;4.00;1.33;;;28.60;62.30;;;;;;5013080;28;20507;-71
2022/06/25 12:11:55;;;;;;;3.03;1.23;;;28.70;62.40;;;;;;5013094;28;20044;-72
2022/06/25 12:14:26;;;;;;;1.38;1.00;;;28.70;62.60;;;;;;5012943;28;20436;-71
2022/06/25 12:16:52;;;;;;;1.42;1.10;;;28.80;62.40;;;;;;5012774;28;20080;-71
2022/06/25 12:19:20;;;;;;;2.42;1.25;;;28.70;62.30;;;;;;5012839;28;20033;-71
2022/06/25 12:21:46;;;;;;;5.55;1.40;;;28.80;62.80;;;;;;5012103;28;20022;-71
2022/06/25 12:24:14;;;;;;;2.65;0.90;;;29.00;62.20;;;;;;5012330;28;20037;-71
2022/06/25 12:26:43;;;;;;;2.10;1.10;;;29.20;62.20;;;;;;5012296;28;20026;-71
2022/06/25 12:29:12;;;;;;;1.55;0.90;;;29.20;61.90;;;;;;5012560;28;20392;-70
2022/06/25 12:31:40;;;;;;;1.38;1.00;;;29.20;62.20;;;;;;5012115;28;20057;-71
2022/06/25 12:34:06;;;;;;;0.82;0.82;;;29.10;60.80;;;;;;5012388;28;20042;-72
2022/06/25 12:36:39;;;;;;;1.55;1.35;;;28.80;60.60;;;;;;5013089;28;20022;-71
2022/06/25 12:39:35;;;;;;;3.05;1.50;;;28.70;61.40;;;;;;5012527;28;20526;-71
2022/06/25 12:42:09;;;;;;;1.00;0.82;;;28.60;61.50;;;;;;5012081;28;20124;-72
2022/06/25 12:44:37;;;;;;;1.80;1.10;;;28.70;61.30;;;;;;5012078;28;20038;-71
2022/06/25 12:47:10;;;;;;;4.47;1.23;;;28.70;61.50;;;;;;5012285;28;20119;-71
2022/06/25 12:49:53;;;;;;;1.98;1.40;;;28.70;61.50;;;;;;5012255;28;20038;-71
2022/06/25 12:52:21;;;;;;;1.52;1.08;;;28.70;61.20;;;;;;5012149;28;20043;-72
2022/06/25 12:54:50;;;;;;;1.58;0.90;;;28.70;61.20;;;;;;5012338;28;20079;-71
2022/06/25 12:57:19;;;;;;;1.63;1.20;;;28.60;61.30;;;;;;5011861;28;20095;-70
2022/06/25 12:59:46;;;;;;;1.05;0.82;;;28.60;61.10;;;;;;5010736;28;20049;-70
2022/06/25 13:02:12;;;;;;;4.10;1.50;;;28.60;61.40;;;;;;5011852;28;20037;-71
2022/06/25 13:04:38;;;;;;;4.53;1.63;;;28.60;61.50;;;;;;5011844;28;20053;-71